Time;durP1;ratioP1;P1;durP2;ratioP2;P2;SDS_P1;SDS_P2;PMS_P1;PMS_P2;Temp;Humidity;BMP_temperature;BMP_pressure;BME280_temperature;BME280_humidity;BME280_pressure;Samples;Min_cycle;Max_cycle;Signal;HPM_P1;HPM_P2
2023/04/20 00:02:02;;;;;;;26.67;13.18;;;;;;;16.61;69.27;100065.09;12788034;22;98970;-78
2023/04/20 00:07:07;;;;;;;20.27;12.32;;;;;;;16.74;68.48;100060.66;12790234;22;98898;-78
2023/04/20 00:12:11;;;;;;;22.98;13.23;;;;;;;16.98;68.30;100052.81;12789000;22;99528;-78
2023/04/20 00:17:14;;;;;;;21.30;11.23;;;;;;;17.24;67.22;100048.34;12788455;22;98911;-79
2023/04/20 00:22:18;;;;;;;19.20;10.27;;;;;;;17.30;67.47;100039.94;12788058;22;99329;-78
2023/04/20 00:27:22;;;;;;;22.27;11.13;;;;;;;17.38;66.48;100040.25;12788671;22;98933;-78
2023/04/20 00:32:27;;;;;;;18.25;9.93;;;;;;;17.30;66.61;100030.16;12787919;22;98938;-78
2023/04/20 00:37:32;;;;;;;19.85;9.45;;;;;;;17.21;66.99;100028.13;12791046;22;99003;-78
2023/04/20 00:42:35;;;;;;;16.40;8.07;;;;;;;17.35;66.56;100021.84;12790955;22;99158;-78
2023/04/20 00:47:38;;;;;;;14.07;6.97;;;;;;;17.47;65.89;100026.31;12791768;22;99196;-78
2023/04/20 00:52:44;;;;;;;19.75;8.70;;;;;;;17.45;65.63;100023.72;12791610;22;99306;-78
2023/04/20 00:57:47;;;;;;;16.92;9.88;;;;;;;17.44;65.83;100024.69;12792367;22;98982;-78
2023/04/20 01:02:51;;;;;;;18.70;11.10;;;;;;;17.22;66.41;100011.22;12791202;22;99253;-78
2023/04/20 01:07:55;;;;;;;21.80;11.82;;;;;;;17.16;66.90;100019.63;12791225;22;99260;-78
2023/04/20 01:12:59;;;;;;;;;;;;;;;16.82;67.75;100009.66;12790564;22;98982;-78
2023/04/20 01:18:02;;;;;;;14.50;8.05;;;;;;;16.44;67.85;100011.41;12791653;22;98803;-77
2023/04/20 01:23:07;;;;;;;15.50;7.90;;;;;;;16.51;67.18;100005.59;12791912;22;98902;-78
2023/04/20 01:28:13;;;;;;;12.10;7.32;;;;;;;16.71;65.98;100004.19;12789773;22;98932;-78
2023/04/20 01:33:16;;;;;;;17.02;8.50;;;;;;;16.68;65.97;100001.75;12791230;22;99034;-78
2023/04/20 01:38:22;;;;;;;14.57;8.10;;;;;;;16.95;64.86;100008.69;12790873;22;98937;-78
2023/04/20 01:43:25;;;;;;;10.75;7.10;;;;;;;16.66;65.43;99998.34;12791384;22;99011;-77
2023/04/20 01:48:28;;;;;;;15.52;6.65;;;;;;;16.66;64.78;99998.34;12792052;22;99117;-77
2023/04/20 01:53:33;;;;;;;14.65;8.07;;;;;;;16.73;64.44;99987.22;12791670;22;99027;-78
2023/04/20 01:58:36;;;;;;;15.73;8.13;;;;;;;16.87;64.25;99972.97;12790973;22;99160;-77
2023/04/20 02:03:40;;;;;;;15.75;8.13;;;;;;;16.78;64.43;99969.13;12789631;22;98921;-78
2023/04/20 02:08:45;;;;;;;11.80;7.55;;;;;;;16.87;64.50;99965.84;12791199;22;98885;-78
2023/04/20 02:13:48;;;;;;;14.82;9.68;;;;;;;17.07;64.65;99972.41;12790570;22;98804;-78
2023/04/20 02:18:51;;;;;;;10.63;7.25;;;;;;;17.03;64.83;99978.91;12790913;22;97839;-78
2023/04/20 02:23:56;;;;;;;17.33;9.73;;;;;;;17.09;64.85;99973.16;12789319;22;99451;-78
2023/04/20 02:28:59;;;;;;;12.60;7.00;;;;;;;17.00;64.68;99982.63;12791124;22;99274;-78
2023/04/20 02:34:04;;;;;;;11.88;6.55;;;;;;;16.72;64.63;99969.56;12788488;22;99331;-78
2023/04/20 02:39:09;;;;;;;13.80;7.30;;;;;;;16.72;63.63;99974.88;12791834;22;99225;-78
2023/04/20 02:44:13;;;;;;;12.60;7.05;;;;;;;16.92;63.43;99978.81;12790463;22;99395;-78
2023/04/20 02:49:16;;;;;;;11.38;6.20;;;;;;;16.85;63.96;99978.38;12790729;22;99093;-78
2023/04/20 02:54:21;;;;;;;10.23;6.63;;;;;;;16.49;64.08;99980.94;12788278;22;98983;-77
2023/04/20 02:59:26;;;;;;;12.50;6.30;;;;;;;16.41;64.27;99985.06;12789068;22;98719;-77
2023/04/20 03:04:30;;;;;;;10.48;6.32;;;;;;;16.25;63.87;99989.66;12788624;22;99088;-77
2023/04/20 03:09:36;;;;;;;11.75;6.25;;;;;;;16.30;63.81;99988.41;12790321;22;99011;-77
2023/04/20 03:14:39;;;;;;;12.05;6.00;;;;;;;16.49;63.65;99991.56;12789438;22;97994;-78
2023/04/20 03:19:42;;;;;;;11.75;6.20;;;;;;;16.27;64.49;99990.41;12789697;22;99119;-77
2023/04/20 03:24:47;;;;;;;14.27;6.13;;;;;;;16.19;64.35;99976.78;12787154;22;99298;-77
2023/04/20 03:29:54;;;;;;;13.73;7.57;;;;;;;16.30;64.33;99972.47;12790535;22;99093;-76
2023/04/20 03:34:58;;;;;;;12.45;7.18;;;;;;;16.08;64.91;99960.72;12789646;22;99711;-77
2023/04/20 03:40:02;;;;;;;11.25;7.25;;;;;;;16.24;64.33;99966.72;12789754;22;97467;-77
2023/04/20 03:45:07;;;;;;;16.92;8.05;;;;;;;16.14;64.63;99962.97;12788412;22;99123;-76
2023/04/20 03:50:10;;;;;;;13.37;7.87;;;;;;;15.96;65.11;99956.25;12790244;22;99174;-77
2023/04/20 03:55:15;;;;;;;15.25;8.85;;;;;;;15.91;65.36;99952.06;12788927;22;98812;-77
2023/04/20 04:00:18;;;;;;;16.10;8.35;;;;;;;16.08;65.06;99950.13;12786906;22;99033;-77
2023/04/20 04:05:22;;;;;;;16.20;9.32;;;;;;;16.23;64.78;99943.75;12789655;22;98916;-77
2023/04/20 04:10:27;;;;;;;15.00;8.30;;;;;;;16.39;64.31;99947.09;12790710;22;99590;-77
2023/04/20 04:15:30;;;;;;;;;;;;;;;16.10;64.58;99950.88;12792593;22;98827;-78
2023/04/20 04:20:34;;;;;;;13.00;6.85;;;;;;;16.17;63.83;99955.66;12793073;22;98950;-78
2023/04/20 04:25:39;;;;;;;11.70;7.20;;;;;;;16.21;63.25;99962.47;12791649;22;98864;-78
2023/04/20 04:30:42;;;;;;;12.70;7.40;;;;;;;15.88;63.72;99954.94;12791497;22;99238;-77
2023/04/20 04:35:47;;;;;;;10.75;7.00;;;;;;;15.81;63.78;99952.78;12790685;22;99187;-77
2023/04/20 04:40:52;;;;;;;11.48;6.47;;;;;;;15.81;62.91;99955.44;12792244;22;98897;-77
2023/04/20 04:45:57;;;;;;;11.85;6.80;;;;;;;15.88;63.12;99954.94;12792201;22;99005;-76
2023/04/20 04:51:00;;;;;;;12.00;7.13;;;;;;;15.93;63.06;99965.25;12792012;22;99007;-77
2023/04/20 04:56:06;;;;;;;11.93;6.57;;;;;;;15.87;62.84;99971.78;12791875;22;99878;-77
2023/04/20 05:01:10;;;;;;;11.98;6.30;;;;;;;15.91;62.77;99988.38;12788819;22;98747;-77
2023/04/20 05:06:13;;;;;;;11.88;6.68;;;;;;;15.91;62.56;99988.38;12791304;22;99034;-77
2023/04/20 05:11:18;;;;;;;11.45;6.57;;;;;;;16.07;62.15;99990.88;12792726;22;99004;-77
2023/04/20 05:16:21;;;;;;;13.07;6.90;;;;;;;15.94;62.76;99982.88;12791553;22;98956;-77
2023/04/20 05:21:25;;;;;;;12.27;6.90;;;;;;;15.89;63.16;99991.13;12788766;22;99337;-77
2023/04/20 05:26:29;;;;;;;12.80;7.50;;;;;;;16.12;62.77;99991.41;12790396;22;99057;-77
2023/04/20 05:31:33;;;;;;;;;;;;;;;15.93;64.37;100010.34;12791546;22;98981;-77
2023/04/20 05:36:36;;;;;;;14.13;7.30;;;;;;;15.81;63.82;100006.72;12791727;22;98189;-76
2023/04/20 05:41:41;;;;;;;11.02;6.18;;;;;;;15.84;63.31;100003.84;12791251;22;99130;-76
2023/04/20 05:46:44;;;;;;;9.63;5.63;;;;;;;15.78;62.90;100014.88;12791590;22;98857;-77
2023/04/20 05:51:47;;;;;;;9.73;5.65;;;;;;;15.68;62.76;100005.78;12791250;22;98914;-76
2023/04/20 05:56:52;;;;;;;9.07;6.10;;;;;;;15.48;63.09;100003.56;12790867;22;99315;-78
2023/04/20 06:01:56;;;;;;;10.25;6.00;;;;;;;15.48;62.48;100005.34;12792164;22;99072;-77
2023/04/20 06:07:00;;;;;;;10.68;6.68;;;;;;;15.37;62.66;99995.41;12791600;22;99131;-77
2023/04/20 06:12:05;;;;;;;10.52;6.10;;;;;;;15.27;62.70;99986.34;12791007;22;99090;-77
2023/04/20 06:17:08;;;;;;;9.35;6.30;;;;;;;15.27;62.93;99986.34;12789567;22;98908;-77
2023/04/20 06:22:11;;;;;;;10.73;6.20;;;;;;;15.45;62.34;99990.50;12790950;22;99179;-77
2023/04/20 06:27:16;;;;;;;10.68;6.82;;;;;;;15.53;62.52;99993.50;12790452;22;99158;-77
2023/04/20 06:32:19;;;;;;;10.07;6.25;;;;;;;15.57;62.38;99999.47;12789511;22;97706;-77
2023/04/20 06:37:23;;;;;;;11.68;7.22;;;;;;;15.60;62.36;100002.78;12790878;22;99000;-77
2023/04/20 06:42:27;;;;;;;14.18;7.45;;;;;;;15.59;62.36;99990.47;12790766;22;99174;-77
2023/04/20 06:47:32;;;;;;;12.80;7.55;;;;;;;15.62;62.94;99987.63;12790323;22;99537;-77
2023/04/20 06:52:37;;;;;;;12.82;7.38;;;;;;;15.71;62.28;99992.34;12791391;22;99316;-77
2023/04/20 06:57:42;;;;;;;10.13;7.22;;;;;;;15.52;62.69;99989.16;12790302;22;98797;-77
2023/04/20 07:02:47;;;;;;;13.57;7.70;;;;;;;15.51;63.27;99989.25;12790293;22;99199;-77
2023/04/20 07:07:51;;;;;;;12.13;7.60;;;;;;;15.47;63.21;99996.56;12788390;22;97952;-76
2023/04/20 07:12:55;;;;;;;12.90;7.82;;;;;;;15.51;63.44;99997.22;12790422;22;99197;-77
2023/04/20 07:17:59;;;;;;;11.30;7.10;;;;;;;15.62;63.23;99998.22;12790346;22;99174;-77
2023/04/20 07:23:02;;;;;;;11.13;7.53;;;;;;;15.80;62.57;100002.31;12788213;22;99317;-76
2023/04/20 07:28:07;;;;;;;11.68;7.07;;;;;;;15.87;62.26;100000.16;12790154;22;99213;-77
2023/04/20 07:33:11;;;;;;;11.82;7.55;;;;;;;15.73;62.70;99998.41;12789734;22;97856;-76
2023/04/20 07:38:15;;;;;;;11.45;7.60;;;;;;;15.74;62.47;99994.78;12789348;22;98895;-76
2023/04/20 07:43:20;;;;;;;12.18;7.35;;;;;;;15.83;62.46;99996.00;12791438;22;98938;-76
2023/04/20 07:48:23;;;;;;;12.85;7.53;;;;;;;15.87;62.74;100002.81;12792271;22;99226;-76
2023/04/20 07:53:27;;;;;;;18.25;9.25;;;;;;;16.03;62.24;100008.78;12791935;22;99002;-77
2023/04/20 07:58:31;;;;;;;10.68;7.88;;;;;;;16.34;61.84;100007.63;12791083;22;98766;-76
2023/04/20 08:03:35;;;;;;;13.55;8.70;;;;;;;16.49;61.47;100007.47;12791929;22;98867;-76
2023/04/20 08:08:38;;;;;;;16.27;8.48;;;;;;;16.48;61.25;100003.13;12792350;22;99195;-77
2023/04/20 08:13:43;;;;;;;15.45;8.43;;;;;;;16.39;61.60;99994.91;12792191;22;98850;-77
2023/04/20 08:18:46;;;;;;;13.52;7.68;;;;;;;16.54;61.66;99993.88;12791254;22;99086;-77
2023/04/20 08:23:50;;;;;;;14.02;8.32;;;;;;;16.78;61.03;100002.81;12792325;22;98784;-77
2023/04/20 08:28:55;;;;;;;13.73;8.40;;;;;;;16.89;60.73;99993.19;12790482;22;98921;-77
2023/04/20 08:33:58;;;;;;;;;;;;;;;16.93;60.66;99997.31;12793198;22;99003;-77
2023/04/20 08:39:06;;;;;;;12.50;8.27;;;;;;;17.15;60.09;99998.47;12792253;22;98867;-77
2023/04/20 08:44:11;;;;;;;11.10;7.57;;;;;;;17.83;58.34;100005.06;12792031;22;98893;-77
2023/04/20 08:49:15;;;;;;;;;;;;;;;18.36;57.25;99985.06;12790716;22;98491;-77
2023/04/20 08:54:18;;;;;;;11.75;7.15;;;;;;;20.02;53.80;99986.84;12791729;22;98845;-77
2023/04/20 08:59:23;;;;;;;12.10;5.80;;;;;;;20.67;51.39;99992.03;12791811;22;99065;-78
2023/04/20 09:04:27;;;;;;;10.60;6.85;;;;;;;20.06;51.37;99982.97;12791506;22;99115;-77
2023/04/20 09:09:30;;;;;;;11.20;6.25;;;;;;;20.75;50.30;99978.88;12792009;22;98831;-77
2023/04/20 09:14:44;;;;;;;11.27;6.90;;;;;;;21.55;47.95;99970.94;12791062;22;98957;-77
2023/04/20 09:19:53;;;;;;;9.97;5.90;;;;;;;22.89;45.25;99958.47;12790319;22;99023;-78
2023/04/20 09:24:57;;;;;;;12.27;7.03;;;;;;;22.17;45.80;99967.00;12791964;22;99085;-77
2023/04/20 09:30:02;;;;;;;9.90;6.30;;;;;;;22.81;44.62;99961.88;12791783;22;99169;-78
2023/04/20 09:35:07;;;;;;;11.30;7.03;;;;;;;22.02;45.72;99960.34;12790947;22;97858;-78
2023/04/20 09:40:11;;;;;;;9.32;6.50;;;;;;;22.35;45.36;99951.06;12790104;22;99377;-78
2023/04/20 09:45:16;;;;;;;;;;;;;;;23.37;43.31;99943.00;12791804;22;99491;-78
2023/04/20 09:50:20;;;;;;;;;;;;;;;22.88;44.20;99943.34;12792182;22;99309;-78
2023/04/20 09:55:34;;;;;;;11.47;6.90;;;;;;;24.62;41.00;99946.50;12790512;22;99293;-77
2023/04/20 10:00:38;;;;;;;10.37;6.60;;;;;;;24.22;40.87;99932.69;12791485;22;98952;-78
2023/04/20 10:05:42;;;;;;;8.20;5.85;;;;;;;24.90;39.29;99934.56;12790136;22;97928;-78
2023/04/20 10:10:47;;;;;;;8.60;5.53;;;;;;;25.17;38.18;99925.50;12790620;22;98862;-78
2023/04/20 10:15:52;;;;;;;10.15;5.88;;;;;;;25.79;37.00;99920.56;12791241;22;98997;-78
2023/04/20 10:21:05;;;;;;;10.30;5.90;;;;;;;25.84;37.26;99909.25;12791016;22;99069;-78
2023/04/20 10:26:08;;;;;;;7.80;5.10;;;;;;;25.42;38.35;99898.50;12791151;22;99072;-79
2023/04/20 10:31:15;;;;;;;8.37;5.80;;;;;;;26.15;37.73;99901.34;12788326;22;99084;-78
2023/04/20 10:36:29;;;;;;;7.53;5.93;;;;;;;26.28;38.97;99890.91;12791429;22;98974;-78
2023/04/20 10:41:33;;;;;;;9.38;6.53;;;;;;;26.65;37.08;99883.13;12790581;22;97783;-79
2023/04/20 10:46:37;;;;;;;10.63;7.93;;;;;;;26.62;36.81;99884.34;12790847;22;99037;-79
2023/04/20 10:51:47;;;;;;;12.48;7.90;;;;;;;26.79;37.19;99872.47;12790909;22;98945;-78
2023/04/20 10:56:51;;;;;;;15.00;9.43;;;;;;;25.85;38.65;99870.47;12790742;22;98773;-78
2023/04/20 11:01:58;;;;;;;16.05;8.90;;;;;;;25.70;38.94;99864.06;12788642;22;98900;-78
2023/04/20 11:07:05;;;;;;;14.25;8.88;;;;;;;25.41;39.70;99851.03;12790745;22;99001;-78
2023/04/20 11:12:10;;;;;;;13.32;7.95;;;;;;;24.89;40.82;99857.53;12790442;22;98924;-79
2023/04/20 11:17:15;;;;;;;11.20;7.75;;;;;;;25.43;39.84;99856.25;12790272;22;98855;-78
2023/04/20 11:22:22;;;;;;;15.15;8.43;;;;;;;24.69;42.14;99850.66;12789388;22;99340;-78
2023/04/20 11:27:26;;;;;;;11.48;7.57;;;;;;;24.52;42.06;99854.28;12789896;22;99238;-78
2023/04/20 11:32:30;;;;;;;15.87;8.93;;;;;;;24.25;42.83;99851.72;12787546;22;97840;-78
2023/04/20 11:37:34;;;;;;;9.43;7.20;;;;;;;24.36;42.56;99855.00;12790018;22;99178;-79
2023/04/20 11:42:37;;;;;;;12.50;7.30;;;;;;;24.19;42.64;99857.69;12789530;22;99331;-78
2023/04/20 11:47:42;;;;;;;12.93;6.68;;;;;;;24.72;42.08;99855.75;12790002;22;99192;-78
2023/04/20 11:52:45;;;;;;;11.98;6.53;;;;;;;24.84;41.61;99844.53;12788521;22;98859;-78
2023/04/20 11:57:48;;;;;;;8.90;6.63;;;;;;;23.36;43.79;99840.13;12789593;22;98803;-78
2023/04/20 12:02:53;;;;;;;10.07;6.50;;;;;;;23.46;43.96;99838.19;12789238;22;98976;-78
2023/04/20 12:07:56;;;;;;;10.60;6.78;;;;;;;23.70;44.26;99843.03;12790046;22;98945;-78
2023/04/20 12:13:00;;;;;;;10.52;5.57;;;;;;;23.43;43.93;99841.19;12784946;22;98983;-78
2023/04/20 12:18:04;;;;;;;10.57;5.30;;;;;;;23.13;44.45;99836.16;12789308;22;98527;-78
2023/04/20 12:23:08;;;;;;;10.07;5.28;;;;;;;23.23;45.03;99825.38;12789507;22;98911;-78
2023/04/20 12:28:11;;;;;;;8.67;5.23;;;;;;;23.48;44.97;99828.16;12788277;22;97819;-78
2023/04/20 12:33:16;;;;;;;10.18;5.40;;;;;;;23.53;44.04;99825.00;12790964;22;98891;-78
2023/04/20 12:38:19;;;;;;;10.18;5.97;;;;;;;23.15;45.29;99811.84;12791972;22;98962;-78
2023/04/20 12:43:22;;;;;;;10.48;5.78;;;;;;;23.66;44.89;99822.81;12792311;22;99139;-78
2023/04/20 12:48:27;;;;;;;13.20;5.75;;;;;;;24.17;44.27;99805.94;12792520;22;98982;-78
2023/04/20 12:53:30;;;;;;;10.38;5.53;;;;;;;23.88;44.24;99805.38;12792090;22;99508;-78
2023/04/20 12:58:33;;;;;;;13.33;5.77;;;;;;;23.83;43.84;99802.31;12791819;22;97815;-78
2023/04/20 13:03:38;;;;;;;12.67;5.70;;;;;;;23.96;42.89;99800.06;12789724;22;98792;-77
2023/04/20 13:08:42;;;;;;;12.95;6.18;;;;;;;23.87;44.22;99790.25;12791796;22;99127;-78
2023/04/20 13:13:45;;;;;;;12.20;6.03;;;;;;;23.32;44.77;99793.06;12791352;22;99171;-78
2023/04/20 13:18:50;;;;;;;9.53;5.73;;;;;;;23.79;44.09;99785.66;12791552;22;99223;-78
2023/04/20 13:23:53;;;;;;;13.63;5.78;;;;;;;24.11;44.10;99799.34;12791596;22;99060;-78
2023/04/20 13:28:59;;;;;;;11.30;5.53;;;;;;;23.94;44.22;99788.63;12791406;22;99159;-78
2023/04/20 13:34:03;;;;;;;10.07;5.80;;;;;;;23.45;44.13;99790.00;12791540;22;98983;-78
2023/04/20 13:39:07;;;;;;;13.02;5.78;;;;;;;24.20;43.81;99790.34;12791213;22;97970;-78
2023/04/20 13:44:14;;;;;;;13.85;6.07;;;;;;;24.10;43.72;99780.69;12791225;22;98501;-78
2023/04/20 13:49:21;;;;;;;9.20;5.32;;;;;;;23.99;44.39;99772.88;12791501;22;98864;-78
2023/04/20 13:54:24;;;;;;;15.95;5.00;;;;;;;24.40;44.08;99775.69;12789548;22;99053;-78
2023/04/20 13:59:28;;;;;;;13.27;5.20;;;;;;;24.39;43.18;99768.63;12791350;22;99009;-78
2023/04/20 14:04:32;;;;;;;12.97;5.37;;;;;;;24.03;43.57;99769.69;12791089;22;98852;-77
2023/04/20 14:09:36;;;;;;;10.60;4.95;;;;;;;24.31;44.21;99768.56;12789812;22;97823;-78
2023/04/20 14:14:39;;;;;;;12.57;4.40;;;;;;;24.48;44.30;99766.84;12791024;22;98957;-78
2023/04/20 14:19:44;;;;;;;12.90;5.40;;;;;;;23.58;44.41;99747.50;12790143;22;99154;-78
2023/04/20 14:24:48;;;;;;;10.57;5.50;;;;;;;24.18;44.63;99753.84;12790637;22;98988;-78
2023/04/20 14:29:51;;;;;;;13.60;5.10;;;;;;;23.91;45.19;99749.44;12792050;22;98783;-78
2023/04/20 14:34:56;;;;;;;8.73;5.07;;;;;;;24.08;44.85;99742.38;12790160;22;99188;-78
2023/04/20 14:39:59;;;;;;;10.23;5.20;;;;;;;24.09;45.23;99746.72;12790838;22;98878;-78
2023/04/20 14:45:02;;;;;;;10.83;4.90;;;;;;;24.10;44.54;99743.06;12789286;22;99481;-78
2023/04/20 14:50:08;;;;;;;12.17;5.03;;;;;;;24.17;44.67;99727.97;12790776;22;98876;-78
2023/04/20 14:55:12;;;;;;;8.95;4.90;;;;;;;24.27;44.61;99718.75;12789743;22;98898;-78
2023/04/20 15:00:16;;;;;;;11.13;4.90;;;;;;;23.86;45.32;99716.00;12790303;22;99228;-78
2023/04/20 15:05:21;;;;;;;13.65;5.35;;;;;;;23.77;45.00;99715.09;12788352;22;98408;-78
2023/04/20 15:10:25;;;;;;;11.35;5.15;;;;;;;23.87;45.22;99702.41;12790347;22;99142;-78
2023/04/20 15:15:28;;;;;;;11.03;5.30;;;;;;;24.01;45.06;99698.28;12790420;22;99098;-77
2023/04/20 15:20:52;;;;;;;10.77;5.00;;;;;;;24.03;45.71;99691.75;12791346;22;98987;-78
2023/04/20 15:25:55;;;;;;;12.20;5.05;;;;;;;24.00;45.24;99688.53;12788275;22;97913;-78
2023/04/20 15:30:58;;;;;;;10.97;5.90;;;;;;;23.69;45.46;99680.13;12789573;22;99151;-78
2023/04/20 15:36:03;;;;;;;14.23;5.67;;;;;;;23.56;46.17;99666.25;12788231;22;99224;-77
2023/04/20 15:41:07;;;;;;;9.30;5.57;;;;;;;23.78;45.23;99668.44;12789239;22;97857;-78
2023/04/20 15:46:11;;;;;;;12.30;5.85;;;;;;;23.75;46.03;99670.59;12789753;22;98843;-78
2023/04/20 15:51:16;;;;;;;11.60;5.87;;;;;;;23.26;46.58;99663.97;12789815;22;98841;-78
2023/04/20 15:56:21;;;;;;;9.85;5.25;;;;;;;23.25;46.12;99662.28;12788718;22;97796;-78
2023/04/20 16:01:24;;;;;;;10.10;5.28;;;;;;;23.07;45.88;99662.31;12789284;22;99200;-78
2023/04/20 16:06:30;;;;;;;12.50;5.17;;;;;;;22.81;46.70;99655.16;12791376;22;99753;-78
2023/04/20 16:11:33;;;;;;;10.02;4.65;;;;;;;22.83;46.98;99654.03;12793279;22;99013;-78
2023/04/20 16:16:37;;;;;;;9.93;4.60;;;;;;;22.58;47.63;99660.94;12792179;22;99045;-78
2023/04/20 16:21:41;;;;;;;9.50;4.67;;;;;;;22.34;47.66;99655.28;12792415;22;99352;-78
2023/04/20 16:26:45;;;;;;;9.55;4.93;;;;;;;22.14;48.61;99664.38;12790272;22;97813;-78
2023/04/20 16:31:48;;;;;;;9.37;5.03;;;;;;;21.95;48.44;99668.97;12791517;22;99126;-78
2023/04/20 16:36:53;;;;;;;13.90;5.00;;;;;;;21.81;48.52;99667.63;12789832;22;99104;-79
2023/04/20 16:41:57;;;;;;;11.75;4.63;;;;;;;21.75;48.81;99670.00;12791310;22;97764;-78
2023/04/20 16:47:00;;;;;;;10.50;4.82;;;;;;;21.55;49.39;99671.06;12792179;22;99250;-78
2023/04/20 16:52:05;;;;;;;11.43;4.80;;;;;;;21.53;49.56;99671.19;12792318;22;99070;-78
2023/04/20 16:57:08;;;;;;;10.55;5.45;;;;;;;21.32;50.44;99682.09;12788602;22;98729;-78
2023/04/20 17:02:12;;;;;;;10.48;4.57;;;;;;;21.25;50.33;99680.09;12792504;22;99015;-78
2023/04/20 17:07:16;;;;;;;9.35;4.28;;;;;;;21.22;50.70;99673.22;12791717;22;98924;-78
2023/04/20 17:12:20;;;;;;;10.88;4.75;;;;;;;21.00;50.71;99678.78;12791436;22;98927;-78
2023/04/20 17:17:24;;;;;;;8.30;4.00;;;;;;;21.01;51.01;99668.94;12789686;22;99124;-78
2023/04/20 17:22:29;;;;;;;11.13;4.38;;;;;;;21.02;51.17;99667.94;12791776;22;99226;-78
2023/04/20 17:27:32;;;;;;;8.63;4.22;;;;;;;20.98;51.22;99674.59;12791332;22;99009;-78
2023/04/20 17:32:36;;;;;;;8.15;3.90;;;;;;;21.01;50.86;99674.31;12791113;22;98747;-78
2023/04/20 17:37:41;;;;;;;9.18;4.45;;;;;;;20.99;51.31;99673.59;12791582;22;99221;-78
2023/04/20 17:42:44;;;;;;;9.82;4.20;;;;;;;20.90;51.00;99677.94;12791284;22;98838;-78
2023/04/20 17:47:48;;;;;;;9.80;3.80;;;;;;;20.82;51.26;99684.97;12790299;22;98176;-78
2023/04/20 17:52:52;;;;;;;7.90;3.65;;;;;;;20.77;51.64;99687.22;12792136;22;98980;-78
2023/04/20 17:57:55;;;;;;;8.57;3.72;;;;;;;20.52;51.96;99683.22;12791005;22;98999;-78
2023/04/20 18:02:59;;;;;;;9.05;3.70;;;;;;;20.51;52.16;99688.72;12790597;22;98951;-78
2023/04/20 18:08:04;;;;;;;9.00;4.10;;;;;;;20.08;52.66;99686.31;12789808;22;99373;-78
2023/04/20 18:13:08;;;;;;;8.93;4.22;;;;;;;20.13;52.62;99689.41;12791141;22;98858;-78
2023/04/20 18:18:11;;;;;;;10.30;4.75;;;;;;;19.73;53.47;99685.84;12790796;22;98804;-78
2023/04/20 18:23:16;;;;;;;9.60;4.25;;;;;;;19.74;53.63;99692.84;12791133;22;99211;-78
2023/04/20 18:28:20;;;;;;;9.35;4.50;;;;;;;19.32;53.91;99691.16;12790144;22;98982;-78
2023/04/20 18:33:23;;;;;;;9.37;4.80;;;;;;;19.21;54.22;99684.91;12790258;22;99046;-78
2023/04/20 18:38:27;;;;;;;9.23;4.45;;;;;;;19.21;54.44;99692.91;12790811;22;98931;-78
2023/04/20 18:43:31;;;;;;;;;;;;;;;18.94;54.67;99681.84;12792291;22;98978;-78
2023/04/20 18:48:34;;;;;;;6.65;3.65;;;;;;;18.84;54.82;99680.06;12791010;22;98953;-77
2023/04/20 18:53:39;;;;;;;9.77;3.67;;;;;;;18.80;54.31;99687.47;12790259;22;98973;-78
2023/04/20 18:58:42;;;;;;;;;;;;;;;18.77;55.35;99687.72;12789401;22;97700;-78
2023/04/20 19:03:45;;;;;;;8.00;3.72;;;;;;;18.74;54.60;99696.00;12790490;22;98894;-78
2023/04/20 19:08:51;;;;;;;8.20;3.67;;;;;;;18.51;54.31;99686.34;12789438;22;99236;-78
2023/04/20 19:13:54;;;;;;;;;;;;;;;18.59;55.18;99697.22;12790875;22;99315;-78
2023/04/20 19:18:58;;;;;;;8.63;3.58;;;;;;;18.51;55.12;99690.81;12790818;22;99218;-78
2023/04/20 19:24:02;;;;;;;7.63;3.58;;;;;;;18.54;54.81;99698.59;12790601;22;99027;-78
2023/04/20 19:29:05;;;;;;;;;;;;;;;18.40;55.43;99690.81;12791003;22;99256;-78
2023/04/20 19:34:12;;;;;;;10.55;3.58;;;;;;;18.32;55.19;99687.91;12791049;22;99145;-77
2023/04/20 19:39:16;;;;;;;8.70;4.00;;;;;;;18.41;55.24;99693.34;12791643;22;99355;-77
2023/04/20 19:44:19;;;;;;;;;;;;;;;18.27;55.97;99703.41;12797109;22;98065;-78
2023/04/20 19:49:23;;;;;;;11.95;5.85;;;;;;;18.26;55.53;99704.38;12794966;22;97803;-78
2023/04/20 19:54:27;;;;;;;10.57;4.63;;;;;;;18.19;55.61;99717.34;12796603;22;98827;-78
2023/04/20 19:59:31;;;;;;;;;;;;;;;17.99;56.15;99710.06;12797665;22;99065;-78
2023/04/20 20:04:36;;;;;;;12.98;4.50;;;;;;;17.97;55.94;99709.34;12796371;22;99024;-78
2023/04/20 20:09:43;;;;;;;8.13;4.53;;;;;;;17.89;56.47;99725.94;12793729;22;99054;-78
2023/04/20 20:14:46;;;;;;;6.72;3.85;;;;;;;17.82;57.12;99722.03;12796057;22;98903;-78
2023/04/20 20:19:51;;;;;;;10.10;4.43;;;;;;;17.70;57.26;99720.34;12796347;22;99180;-78
2023/04/20 20:24:59;;;;;;;7.63;4.13;;;;;;;17.67;57.72;99730.38;12796684;22;99422;-78
2023/04/20 20:30:03;;;;;;;7.47;4.20;;;;;;;17.64;57.46;99735.94;12796197;22;98783;-77
2023/04/20 20:35:10;;;;;;;8.50;4.10;;;;;;;17.52;57.74;99744.84;12795754;22;98887;-77
2023/04/20 20:40:15;;;;;;;9.80;4.30;;;;;;;17.50;58.45;99749.44;12794625;22;98770;-77
2023/04/20 20:45:18;;;;;;;9.57;4.53;;;;;;;17.46;58.45;99750.59;12795440;22;98219;-77
2023/04/20 20:50:22;;;;;;;9.88;4.32;;;;;;;17.30;59.01;99745.56;12794674;22;98127;-77
2023/04/20 20:55:27;;;;;;;9.73;4.23;;;;;;;17.22;58.97;99747.97;12789584;22;99004;-77
2023/04/20 21:00:32;;;;;;;11.10;4.88;;;;;;;17.10;59.56;99751.53;12791465;22;99152;-77
2023/04/20 21:05:35;;;;;;;11.10;4.53;;;;;;;16.63;60.54;99756.81;12791995;22;98878;-78
2023/04/20 21:10:40;;;;;;;9.48;4.40;;;;;;;16.68;60.65;99755.53;12791571;22;99320;-77
2023/04/20 21:15:43;;;;;;;7.65;3.97;;;;;;;16.83;60.23;99753.56;12792528;22;98060;-77
2023/04/20 21:20:46;;;;;;;8.63;3.72;;;;;;;16.70;60.31;99761.59;12791815;22;99144;-78
2023/04/20 21:25:51;;;;;;;7.13;3.65;;;;;;;16.51;60.09;99763.88;12791080;22;97779;-77
2023/04/20 21:30:54;;;;;;;7.07;3.80;;;;;;;16.46;60.50;99760.66;12790085;22;98637;-77
2023/04/20 21:35:57;;;;;;;9.43;4.20;;;;;;;16.50;60.81;99761.28;12791872;22;98834;-77
2023/04/20 21:41:02;;;;;;;8.23;4.10;;;;;;;16.42;60.72;99761.88;12789002;22;99026;-77
2023/04/20 21:46:05;;;;;;;9.65;4.57;;;;;;;16.44;60.28;99759.09;12791877;22;99157;-77
2023/04/20 21:51:09;;;;;;;10.20;4.05;;;;;;;16.42;60.36;99758.34;12789082;22;99078;-77
2023/04/20 21:56:14;;;;;;;10.30;3.80;;;;;;;16.29;60.92;99749.53;12790861;22;98963;-77
2023/04/20 22:01:17;;;;;;;8.30;3.72;;;;;;;16.34;60.34;99752.72;12791226;22;99003;-77
2023/04/20 22:06:21;;;;;;;10.98;4.57;;;;;;;16.39;60.36;99748.78;12791878;22;98193;-77
2023/04/20 22:11:25;;;;;;;8.30;4.25;;;;;;;16.42;60.20;99743.28;12791196;22;98704;-76
2023/04/20 22:16:28;;;;;;;;;;;;;;;16.36;60.91;99745.50;12791796;22;98916;-76
2023/04/20 22:21:32;;;;;;;7.13;4.03;;;;;;;15.91;61.94;99736.28;12789193;22;97732;-77
2023/04/20 22:26:36;;;;;;;11.15;4.05;;;;;;;15.79;62.77;99721.22;12791100;22;98928;-77
2023/04/20 22:31:40;;;;;;;6.97;4.30;;;;;;;15.63;63.05;99728.53;12789980;22;99271;-77
2023/04/20 22:36:43;;;;;;;8.25;4.10;;;;;;;15.45;63.97;99725.34;12790341;22;99200;-77
2023/04/20 22:41:48;;;;;;;9.43;4.25;;;;;;;15.48;63.41;99718.97;12790937;22;99211;-77
2023/04/20 22:46:51;;;;;;;9.30;4.22;;;;;;;15.57;63.49;99713.03;12791361;22;99124;-77
2023/04/20 22:51:55;;;;;;;6.63;3.83;;;;;;;15.36;64.26;99702.09;12790933;22;98834;-77
2023/04/20 22:57:00;;;;;;;8.50;4.22;;;;;;;15.41;63.84;99707.94;12790873;22;98971;-77
2023/04/20 23:02:03;;;;;;;;;;;;;;;15.09;64.28;99700.41;12788887;22;98003;-77
2023/04/20 23:07:07;;;;;;;7.85;4.05;;;;;;;15.51;63.37;99697.56;12790473;22;99137;-77
2023/04/20 23:12:11;;;;;;;8.65;4.25;;;;;;;15.49;63.44;99692.34;12789165;22;99143;-77
2023/04/20 23:17:15;;;;;;;10.05;4.70;;;;;;;15.60;63.30;99683.66;12788718;22;99304;-76
2023/04/20 23:22:18;;;;;;;9.68;3.92;;;;;;;15.64;62.90;99672.75;12790543;22;99249;-76
2023/04/20 23:27:23;;;;;;;7.80;4.65;;;;;;;15.48;63.03;99674.75;12790312;22;98536;-77